createdAt,value
2024-05-09T00:03:35.455Z,11.429530201342281
2024-05-09T00:09:49.563Z,10.691275167785236
2024-05-09T00:13:09.868Z,10.838926174496644
2024-05-09T00:16:30.233Z,10.208053691275168
2024-05-09T00:19:50.279Z,10.778523489932885
2024-05-09T00:23:09.935Z,11.241610738255034
2024-05-09T00:30:27.964Z,10.523489932885907
2024-05-09T00:33:53.109Z,10.906040268456376
2024-05-09T00:38:36.503Z,11.664429530201343
2024-05-09T00:41:56.899Z,11.10738255033557
2024-05-09T00:45:16.956Z,11.48993288590604
2024-05-09T00:50:19.036Z,11.281879194630873
2024-05-09T00:53:43.182Z,12.120805369127517
2024-05-09T00:57:03.118Z,11.174496644295303
2024-05-09T01:00:31.495Z,11.335570469798657
2024-05-09T01:03:58.578Z,11.771812080536913
2024-05-09T01:08:19.233Z,12.78523489932886
2024-05-09T01:11:44.494Z,13.194630872483222
2024-05-09T01:15:04.834Z,12.610738255033556
2024-05-09T01:18:24.823Z,13.080536912751677
2024-05-09T01:25:03.508Z,12.664429530201343
2024-05-09T01:38:53.986Z,12.953020134228188
2024-05-09T01:42:14.164Z,13.328859060402685
2024-05-09T01:45:34.469Z,13.375838926174497
2024-05-09T01:48:54.316Z,14.006711409395972
2024-05-09T01:52:14.434Z,15.322147651006711
2024-05-09T01:55:44.570Z,15.409395973154362
2024-05-09T01:59:04.448Z,15.449664429530202
2024-05-09T02:02:24.739Z,15.644295302013424
2024-05-09T02:05:52.657Z,17.70469798657718
2024-05-09T02:16:25.760Z,18.261744966442954
2024-05-09T02:19:46.012Z,18.563758389261746
2024-05-09T02:23:27.089Z,18.838926174496645
2024-05-09T02:26:48.618Z,19.543624161073826
2024-05-09T02:38:35.701Z,18.395973154362416
2024-05-09T02:50:34.179Z,19.36241610738255
2024-05-09T02:56:57.726Z,19.2751677852349
2024-05-09T03:01:51.182Z,18.20805369127517
2024-05-09T03:05:11.653Z,19.114093959731544
2024-05-09T03:08:31.799Z,18.543624161073826
2024-05-09T03:11:52.946Z,18.899328859060404
2024-05-09T03:15:13.586Z,19.395973154362416
2024-05-09T03:18:35.842Z,20.63758389261745
2024-05-09T03:21:55.719Z,20.456375838926174
2024-05-09T03:25:15.684Z,20.63758389261745
2024-05-09T03:28:35.770Z,21.483221476510067
2024-05-09T03:31:55.607Z,22.221476510067113
2024-05-09T03:36:32.658Z,21.140939597315437
2024-05-09T03:39:55.450Z,22.053691275167786
2024-05-09T03:43:16.039Z,21.496644295302012
2024-05-09T03:46:43.986Z,22.14765100671141
2024-05-09T03:50:40.763Z,23.543624161073826
2024-05-09T03:56:25.691Z,23.691275167785236
2024-05-09T03:59:45.750Z,23.369127516778523
2024-05-09T04:03:07.473Z,23.21476510067114
2024-05-09T04:06:33.914Z,23.959731543624162
2024-05-09T04:09:54.923Z,22.798657718120804
2024-05-09T04:13:15.952Z,23.483221476510067
2024-05-09T04:16:37.009Z,23.80536912751678
2024-05-09T04:19:57.202Z,23.87248322147651
2024-05-09T04:26:23.222Z,24.013422818791945
2024-05-09T04:29:44.440Z,24.261744966442954
2024-05-09T04:33:05.655Z,26.02013422818792
2024-05-09T04:36:26.237Z,25.174496644295303
2024-05-09T04:39:47.562Z,24.523489932885905
2024-05-09T04:43:11.606Z,23.38255033557047
2024-05-09T04:46:31.235Z,23.496644295302012
2024-05-09T04:50:39.299Z,24.08724832214765
2024-05-09T04:54:01.216Z,23.241610738255034
2024-05-09T04:58:40.895Z,21.97986577181208
2024-05-09T05:02:01.876Z,22.671140939597315
2024-05-09T05:08:34.111Z,22.221476510067113
2024-05-09T05:11:55.215Z,22.073825503355703
2024-05-09T05:15:15.808Z,22.80536912751678
2024-05-09T05:18:36.136Z,23.476510067114095
2024-05-09T05:24:14.513Z,23.523489932885905
2024-05-09T05:27:34.656Z,23.463087248322147
2024-05-09T05:32:56.544Z,22.590604026845636
2024-05-09T05:36:17.514Z,22.798657718120804
2024-05-09T05:39:39.097Z,23.22818791946309
2024-05-09T05:42:59.415Z,23.248322147651006
2024-05-09T05:46:19.987Z,23.221476510067113
2024-05-09T05:58:12.994Z,24.885906040268456
2024-05-09T06:10:09.256Z,25.825503355704697
2024-05-09T06:13:36.688Z,25.348993288590606
2024-05-09T06:16:58.430Z,25.684563758389263
2024-05-09T06:20:24.063Z,24.248322147651006
2024-05-09T06:23:53.390Z,24.093959731543624
2024-05-09T06:27:14.096Z,21.51006711409396
2024-05-09T06:30:39.505Z,20.80536912751678
2024-05-09T06:34:02.400Z,21.161073825503355
2024-05-09T06:37:23.415Z,20.812080536912752
2024-05-09T06:40:45.028Z,22.48993288590604
2024-05-09T06:46:06.055Z,21.456375838926174
2024-05-09T06:49:26.905Z,22.19463087248322
2024-05-09T06:52:49.271Z,25.55704697986577
2024-05-09T06:56:09.413Z,24.288590604026847
2024-05-09T06:59:30.251Z,25.201342281879196
2024-05-09T07:04:28.310Z,23.355704697986578
2024-05-09T07:11:00.077Z,24.06040268456376
2024-05-09T07:14:22.107Z,24.34228187919463
2024-05-09T07:17:42.726Z,25.369127516778523
2024-05-09T07:21:03.639Z,25.06040268456376
2024-05-09T07:27:09.019Z,24.671140939597315
2024-05-09T07:32:48.325Z,23.093959731543624
2024-05-09T07:36:10.261Z,22.496644295302012
2024-05-09T07:41:17.231Z,21.543624161073826
2024-05-09T07:44:48.594Z,22.550335570469798
2024-05-09T07:53:08.886Z,20.80536912751678
2024-05-09T07:56:58.101Z,19.812080536912752
2024-05-09T08:00:23.717Z,19.899328859060404
2024-05-09T08:06:49.387Z,21.583892617449663
2024-05-09T08:10:12.891Z,22.308724832214764
2024-05-09T08:13:35.493Z,22.181208053691275
2024-05-09T08:19:03.998Z,23.590604026845636
2024-05-09T08:24:48.949Z,21.812080536912752
2024-05-09T08:28:42.015Z,20.154362416107382
2024-05-09T08:32:02.773Z,20.449664429530202
2024-05-09T08:38:49.286Z,21.0
2024-05-09T08:46:25.886Z,23.738255033557046
2024-05-09T08:53:15.589Z,25.22818791946309
2024-05-09T08:56:36.695Z,22.046979865771814
2024-05-09T08:59:59.132Z,23.436241610738254
2024-05-09T09:05:08.744Z,21.463087248322147
2024-05-09T09:08:30.035Z,24.59731543624161
2024-05-09T09:11:50.401Z,22.590604026845636
2024-05-09T09:15:10.447Z,20.550335570469798
2024-05-09T09:18:31.181Z,20.25503355704698
2024-05-09T09:27:14.739Z,20.375838926174495
2024-05-09T09:39:21.609Z,19.174496644295303
2024-05-09T09:42:42.323Z,16.97986577181208
2024-05-09T09:48:58.449Z,15.395973154362416
2024-05-09T09:56:21.155Z,16.08053691275168
2024-05-09T09:59:42.165Z,15.912751677852349
2024-05-09T10:03:02.559Z,18.355704697986578
2024-05-09T10:06:23.186Z,19.0
2024-05-09T10:09:44.175Z,19.630872483221477
2024-05-09T10:13:04.420Z,19.34228187919463
2024-05-09T10:16:24.158Z,19.14765100671141
2024-05-09T10:23:57.015Z,17.65771812080537
2024-05-09T10:27:17.392Z,17.221476510067113
2024-05-09T10:30:39.415Z,17.16778523489933
2024-05-09T10:34:01.152Z,15.966442953020135
2024-05-09T10:37:22.233Z,15.879194630872483
2024-05-09T10:40:42.717Z,15.38255033557047
2024-05-09T10:44:02.627Z,14.59731543624161
2024-05-09T10:47:22.516Z,12.288590604026846
2024-05-09T10:50:42.349Z,13.557046979865772
2024-05-09T10:54:02.315Z,13.261744966442953
2024-05-09T10:57:22.807Z,14.476510067114093
2024-05-09T11:02:23.730Z,14.51006711409396
2024-05-09T11:05:45.280Z,13.939597315436242
2024-05-09T11:09:05.595Z,14.684563758389261
2024-05-09T11:12:26.395Z,14.899328859060402
2024-05-09T11:15:47.732Z,14.765100671140939
2024-05-09T11:19:09.021Z,14.550335570469798
2024-05-09T11:24:47.469Z,14.738255033557047
2024-05-09T11:28:08.030Z,15.644295302013424
2024-05-09T11:31:29.036Z,14.812080536912752
2024-05-09T11:39:16.624Z,15.778523489932885
2024-05-09T11:42:37.752Z,14.879194630872483
2024-05-09T11:48:00.965Z,15.563758389261745
2024-05-09T11:51:21.165Z,13.496644295302014
2024-05-09T11:54:41.268Z,14.865771812080537
2024-05-09T11:58:01.242Z,14.248322147651006
2024-05-09T12:01:25.067Z,15.610738255033556
2024-05-09T12:04:47.166Z,15.644295302013424
2024-05-09T12:08:07.577Z,14.463087248322148
2024-05-09T12:11:27.572Z,15.093959731543624
2024-05-09T12:14:48.067Z,14.671140939597315
2024-05-09T12:23:15.956Z,14.114093959731544
2024-05-09T12:26:37.599Z,14.476510067114093
2024-05-09T12:29:57.734Z,12.859060402684564
2024-05-09T12:33:18.276Z,12.865771812080537
2024-05-09T12:36:39.566Z,12.939597315436242
2024-05-09T12:40:00.647Z,12.919463087248323
2024-05-09T12:45:16.535Z,12.322147651006711
2024-05-09T12:48:37.192Z,9.906040268456376
2024-05-09T12:56:14.642Z,11.221476510067115
2024-05-09T12:59:35.902Z,11.21476510067114
2024-05-09T13:02:57.337Z,11.550335570469798
2024-05-09T13:06:17.382Z,11.59731543624161
2024-05-09T13:09:38.990Z,12.375838926174497
2024-05-09T13:13:02.052Z,10.46979865771812
2024-05-09T13:16:22.683Z,10.476510067114093
2024-05-09T13:19:44.387Z,9.449664429530202
2024-05-09T13:23:05.562Z,10.315436241610739
2024-05-09T13:26:31.960Z,9.946308724832214
2024-05-09T13:31:23.146Z,9.543624161073826
2024-05-09T13:34:47.776Z,11.0
2024-05-09T13:38:10.405Z,10.590604026845638
2024-05-09T13:45:51.067Z,9.973154362416107
2024-05-09T13:49:12.934Z,8.966442953020135
2024-05-09T13:52:42.134Z,8.563758389261745
2024-05-09T13:56:44.726Z,9.48993288590604
2024-05-09T14:00:37.932Z,9.758389261744966
2024-05-09T14:07:11.054Z,9.590604026845638
2024-05-09T14:10:36.273Z,9.731543624161073
2024-05-09T14:13:58.995Z,10.95973154362416
2024-05-09T14:17:20.366Z,9.644295302013424
2024-05-09T14:23:54.553Z,10.463087248322148
2024-05-09T14:29:59.609Z,10.778523489932885
2024-05-09T14:33:20.747Z,9.234899328859061
2024-05-09T14:36:42.037Z,9.429530201342281
2024-05-09T14:40:02.952Z,8.604026845637584
2024-05-09T14:43:24.648Z,9.818791946308725
2024-05-09T14:46:46.638Z,8.825503355704697
2024-05-09T14:50:06.999Z,10.060402684563758
2024-05-09T14:53:29.252Z,8.261744966442953
2024-05-09T14:56:50.041Z,8.993288590604028
2024-05-09T15:02:46.627Z,9.704697986577182
2024-05-09T15:06:11.357Z,9.651006711409396
2024-05-09T15:17:53.564Z,8.939597315436242
2024-05-09T15:21:14.546Z,9.93288590604027
2024-05-09T15:24:38.897Z,9.664429530201343
2024-05-09T15:28:05.271Z,9.167785234899329
2024-05-09T15:34:43.688Z,8.187919463087248
2024-05-09T15:38:46.580Z,9.651006711409396
2024-05-09T15:43:05.700Z,9.583892617449665
2024-05-09T15:46:27.676Z,8.322147651006711
2024-05-09T15:49:49.775Z,7.825503355704698
2024-05-09T15:54:54.453Z,9.476510067114093
2024-05-09T15:58:16.283Z,9.604026845637584
2024-05-09T16:01:37.855Z,8.543624161073826
2024-05-09T16:08:00.090Z,8.711409395973154
2024-05-09T16:11:21.211Z,8.456375838926174
2024-05-09T16:14:42.303Z,7.906040268456376
2024-05-09T16:18:31.910Z,8.25503355704698
2024-05-09T16:26:55.849Z,8.302013422818792
2024-05-09T16:30:31.463Z,8.95973154362416
2024-05-09T16:34:00.745Z,10.885906040268456
2024-05-09T16:37:21.949Z,10.409395973154362
2024-05-09T16:40:43.431Z,9.288590604026846
2024-05-09T16:46:33.335Z,9.885906040268456
2024-05-09T16:50:05.144Z,10.033557046979865
2024-05-09T16:53:25.843Z,11.120805369127517
2024-05-09T16:56:48.105Z,12.919463087248323
2024-05-09T17:00:18.101Z,13.013422818791947
2024-05-09T17:06:35.491Z,11.234899328859061
2024-05-09T17:10:26.697Z,12.10738255033557
2024-05-09T17:13:53.403Z,11.791946308724832
2024-05-09T17:17:14.218Z,12.550335570469798
2024-05-09T17:20:54.572Z,12.114093959731544
2024-05-09T17:24:15.693Z,11.832214765100671
2024-05-09T17:30:46.460Z,12.61744966442953
2024-05-09T17:34:32.856Z,13.10738255033557
2024-05-09T17:37:55.401Z,11.946308724832214
2024-05-09T17:41:15.779Z,12.718120805369127
2024-05-09T17:44:37.364Z,12.020134228187919
2024-05-09T17:48:47.006Z,12.48993288590604
2024-05-09T17:52:06.898Z,13.38255033557047
2024-05-09T17:55:27.015Z,13.624161073825503
2024-05-09T17:58:47.982Z,13.912751677852349
2024-05-09T18:02:09.499Z,13.926174496644295
2024-05-09T18:11:01.978Z,12.208053691275168
2024-05-09T18:14:23.616Z,11.684563758389261
2024-05-09T18:17:45.095Z,11.859060402684564
2024-05-09T18:21:05.457Z,11.355704697986576
2024-05-09T18:24:26.582Z,11.093959731543624
2024-05-09T18:27:48.563Z,11.657718120805368
2024-05-09T18:31:10.237Z,11.771812080536913
2024-05-09T18:34:31.391Z,12.899328859060402
2024-05-09T18:37:53.775Z,13.10738255033557
2024-05-09T18:41:16.196Z,14.12751677852349
2024-05-09T18:45:59.716Z,17.06040268456376
2024-05-09T18:49:24.342Z,16.033557046979865
2024-05-09T18:52:45.838Z,18.006711409395972
2024-05-09T18:56:57.570Z,18.22818791946309
2024-05-09T19:00:31.014Z,21.48993288590604
2024-05-09T19:03:56.091Z,18.798657718120804
2024-05-09T19:07:25.189Z,16.644295302013422
2024-05-09T19:10:46.795Z,14.36241610738255
2024-05-09T19:14:08.151Z,14.865771812080537
2024-05-09T19:17:29.636Z,14.060402684563758
2024-05-09T19:22:17.097Z,15.154362416107382
2024-05-09T19:25:37.821Z,16.375838926174495
2024-05-09T19:28:57.877Z,16.08053691275168
2024-05-09T19:32:18.942Z,15.93288590604027
2024-05-09T19:37:30.053Z,16.369127516778523
2024-05-09T19:40:51.035Z,16.946308724832214
2024-05-09T19:44:11.498Z,16.543624161073826
2024-05-09T19:47:38.964Z,16.268456375838927
2024-05-09T19:53:34.337Z,20.08724832214765
2024-05-09T19:56:54.655Z,16.97986577181208
2024-05-09T20:00:21.857Z,17.100671140939596
2024-05-09T20:03:47.406Z,17.65771812080537
2024-05-09T20:08:28.591Z,16.751677852348994
2024-05-09T20:11:49.424Z,17.308724832214764
2024-05-09T20:16:30.844Z,17.664429530201343
2024-05-09T20:19:51.458Z,17.77181208053691
2024-05-09T20:23:11.723Z,17.12751677852349
2024-05-09T20:26:31.262Z,16.83221476510067
2024-05-09T20:29:56.584Z,16.825503355704697
2024-05-09T20:33:16.257Z,17.268456375838927
2024-05-09T20:36:36.564Z,16.624161073825505
2024-05-09T20:39:57.311Z,17.08724832214765
2024-05-09T20:43:18.405Z,16.892617449664428
2024-05-09T20:46:48.133Z,16.583892617449663
2024-05-09T20:50:34.961Z,15.496644295302014
2024-05-09T20:54:05.042Z,15.926174496644295
2024-05-09T20:59:08.530Z,16.161073825503355
2024-05-09T21:02:33.006Z,15.093959731543624
2024-05-09T21:09:05.772Z,15.657718120805368
2024-05-09T21:12:35.484Z,15.758389261744966
2024-05-09T21:16:11.314Z,15.791946308724832
2024-05-09T21:22:37.397Z,15.570469798657719
2024-05-09T21:26:13.705Z,15.275167785234899
2024-05-09T21:29:37.751Z,15.543624161073826
2024-05-09T21:32:57.751Z,15.583892617449665
2024-05-09T21:36:17.762Z,15.63758389261745
2024-05-09T21:59:14.076Z,15.550335570469798
2024-05-09T22:02:34.448Z,14.563758389261745
2024-05-09T22:05:54.936Z,14.704697986577182
2024-05-09T22:09:14.587Z,15.442953020134228
2024-05-09T22:12:36.224Z,15.946308724832214
2024-05-09T22:15:56.591Z,14.53020134228188
2024-05-09T22:19:16.638Z,15.134228187919463
2024-05-09T22:22:36.575Z,13.986577181208053
2024-05-09T22:25:56.929Z,14.523489932885907
2024-05-09T22:29:17.220Z,14.516778523489933
2024-05-09T22:34:19.967Z,15.89261744966443
2024-05-09T22:37:41.346Z,15.295302013422818
2024-05-09T22:45:31.515Z,15.234899328859061
2024-05-09T22:48:51.487Z,16.12751677852349
2024-05-09T23:10:16.573Z,17.013422818791945
2024-05-09T23:13:40.999Z,18.845637583892618
2024-05-09T23:17:00.709Z,19.59731543624161
2024-05-09T23:23:42.190Z,19.08724832214765
2024-05-09T23:27:02.148Z,19.671140939597315
2024-05-09T23:30:36.431Z,18.503355704697988
2024-05-09T23:33:59.507Z,18.348993288590606
2024-05-09T23:37:20.064Z,18.42953020134228
2024-05-09T23:44:26.364Z,18.348993288590606
2024-05-09T23:55:28.029Z,17.993288590604028
2024-05-09T23:58:48.890Z,18.29530201342282
